Troutdale, Oregon
Current Conditions -  °F | °C
As of 2:53 AM on Tuesday 21 Oct 2014 (Local Time) from KTTD Reporting Station
Overcast Overcast  
Wind Chill: 57°   Ceiling: 6000
Heat Index: 57°   Visibility: 10mi
Dew Point: 49°   Wind: 6mph
Humidity: 74%   Direction: 200°SSW
Pressure: 29.89"   Gusts: NA
Location:  45.54°N, 122.38°W
Report Text: KTTD 210953Z AUTO 20005KT 10SM FEW049 BKN060 OVC080 14/09 A2989 RMK AO2 SLP121 T01390094
Loading
Personal Weather Stations






























Interactive Weather Map
Tropical Storm Tracking
New forecast layout! Learn more

10-Day Weather Forecast

Advertisements
Track Severe Weather on mobile